Heat Index [SAI AWOS/ASOS Display]_________FAA Disclaimer: "Not for use in aviation at this time______________" Untitled Document
Hamilton Municipal Airport NY (VGC)
160
12:11
17/03/24
09
N/A
N/A
30.24
N/A
1134
33(F), 1(C)
13(F), -11(C)
25 F
40%
SCT044 SCT050 OVC065
10
N/A
N/A
N/A
12:11 zulu Wind 160 at 10 Knots, Altimeter 30.24
METAR KVGC 241211Z AUTO 16010KT 10SM SCT044 SCT050 OVC065 01/M11 A3024 A02
METAR:
FAA Disclaimer--Advisory Use ONLY, not for flight info--
INFO:
Wind Direction:
Wind Speed:
Wind Gust:
Wind Variable:
Altimeter:
Dens Alt:
Elev:
Temp:
Dwpt:
Wind Chill
Rel Humidity:
Ceiling:
Visibility:
Prsnt Wea:
PCPN:
Remarks:
How to read the WebPage